createdAt,value
2022-08-21T00:00:27.172Z,14.35
2022-08-21T00:03:00.145Z,14.34
2022-08-21T00:05:27.168Z,14.29
2022-08-21T00:07:55.143Z,14.28
2022-08-21T00:10:22.748Z,14.23
2022-08-21T00:12:49.742Z,14.20
2022-08-21T00:15:23.561Z,14.20
2022-08-21T00:17:50.322Z,14.16
2022-08-21T00:20:18.154Z,14.09
2022-08-21T00:22:45.115Z,14.12
2022-08-21T00:25:12.916Z,14.05
2022-08-21T00:27:40.291Z,13.92
2022-08-21T00:30:08.629Z,13.93
2022-08-21T00:32:39.985Z,13.94
2022-08-21T00:35:10.128Z,13.81
2022-08-21T00:37:36.986Z,13.61
2022-08-21T00:40:04.481Z,13.40
2022-08-21T00:42:31.466Z,13.44
2022-08-21T00:44:59.193Z,13.26
2022-08-21T00:47:26.268Z,13.35
2022-08-21T00:49:53.044Z,13.35
2022-08-21T00:52:27.949Z,13.35
2022-08-21T00:54:56.791Z,13.32
2022-08-21T00:57:34.637Z,13.38
2022-08-21T01:00:05.037Z,13.26
2022-08-21T01:02:32.226Z,13.16
2022-08-21T01:04:59.315Z,13.15
2022-08-21T01:07:27.676Z,13.23
2022-08-21T01:09:54.556Z,13.21
2022-08-21T01:12:21.260Z,13.26
2022-08-21T01:14:48.807Z,13.30
2022-08-21T01:17:17.014Z,13.31
2022-08-21T01:19:44.161Z,13.26
2022-08-21T01:22:11.029Z,13.11
2022-08-21T01:24:38.101Z,13.12
2022-08-21T01:27:05.285Z,13.12
2022-08-21T01:29:49.695Z,13.17
2022-08-21T01:32:20.543Z,13.22
2022-08-21T01:34:50.156Z,13.25
2022-08-21T01:37:18.066Z,13.26
2022-08-21T01:39:45.494Z,13.28
2022-08-21T01:42:12.515Z,13.27
2022-08-21T01:44:39.399Z,13.23
2022-08-21T01:47:09.510Z,13.21
2022-08-21T01:49:38.014Z,13.18
2022-08-21T01:52:06.488Z,13.14
2022-08-21T01:54:37.107Z,13.07
2022-08-21T01:57:05.906Z,13.02
2022-08-21T01:59:32.995Z,12.79
2022-08-21T02:01:59.730Z,12.82
2022-08-21T02:04:26.469Z,12.76
2022-08-21T02:06:53.370Z,12.83
2022-08-21T02:09:20.399Z,12.86
2022-08-21T02:11:47.381Z,12.69
2022-08-21T02:14:16.029Z,12.70
2022-08-21T02:17:09.013Z,12.66
2022-08-21T02:19:40.489Z,12.71
2022-08-21T02:22:10.178Z,12.58
2022-08-21T02:24:50.062Z,12.63
2022-08-21T02:27:26.761Z,12.61
2022-08-21T02:29:58.357Z,12.66
2022-08-21T02:32:26.829Z,12.66
2022-08-21T02:34:53.770Z,12.65
2022-08-21T02:37:20.777Z,12.66
2022-08-21T02:39:47.708Z,12.70
2022-08-21T02:42:14.517Z,12.77
2022-08-21T02:44:41.220Z,12.67
2022-08-21T02:47:08.155Z,12.69
2022-08-21T02:49:34.911Z,12.72
2022-08-21T02:52:01.692Z,12.70
2022-08-21T02:54:28.428Z,12.73
2022-08-21T02:56:55.167Z,12.81
2022-08-21T02:59:21.983Z,12.84
2022-08-21T03:01:48.824Z,12.97
2022-08-21T03:04:15.543Z,13.08
2022-08-21T03:06:42.322Z,13.10
2022-08-21T03:09:09.031Z,13.11
2022-08-21T03:11:37.948Z,13.14
2022-08-21T03:14:06.164Z,13.11
2022-08-21T03:16:35.128Z,13.16
2022-08-21T03:19:02.421Z,13.08
2022-08-21T03:21:29.721Z,13.07
2022-08-21T03:23:56.569Z,13.00
2022-08-21T03:26:23.306Z,12.98
2022-08-21T03:28:51.656Z,12.94
2022-08-21T03:31:18.762Z,12.89
2022-08-21T03:33:45.604Z,12.83
2022-08-21T03:36:12.259Z,12.86
2022-08-21T03:38:39.647Z,12.93
2022-08-21T03:41:08.228Z,12.96
2022-08-21T03:43:36.371Z,12.96
2022-08-21T03:46:05.070Z,12.99
2022-08-21T03:48:33.699Z,13.01
2022-08-21T03:51:00.473Z,12.90
2022-08-21T03:53:29.112Z,12.84
2022-08-21T03:55:55.961Z,12.81
2022-08-21T03:58:26.600Z,12.68
2022-08-21T04:00:56.500Z,12.68
2022-08-21T04:03:23.754Z,12.68
2022-08-21T04:05:50.865Z,12.72
2022-08-21T04:08:19.687Z,12.71
2022-08-21T04:10:49.731Z,12.68
2022-08-21T04:13:16.492Z,12.66
2022-08-21T04:15:43.561Z,12.68
2022-08-21T04:18:10.894Z,12.71
2022-08-21T04:20:37.797Z,12.66
2022-08-21T04:23:04.768Z,12.65
2022-08-21T04:25:32.031Z,12.70
2022-08-21T04:27:58.979Z,12.76
2022-08-21T04:30:28.819Z,12.83
2022-08-21T04:32:57.443Z,12.80
2022-08-21T04:35:26.499Z,12.89
2022-08-21T04:37:53.267Z,12.97
2022-08-21T04:40:22.407Z,13.05
2022-08-21T04:42:52.825Z,13.12
2022-08-21T04:45:29.269Z,13.31
2022-08-21T04:47:59.277Z,13.34
2022-08-21T04:50:31.131Z,13.46
2022-08-21T04:52:58.693Z,13.48
2022-08-21T04:55:28.437Z,13.52
2022-08-21T04:57:56.990Z,13.65
2022-08-21T05:00:25.646Z,13.62
2022-08-21T05:02:57.554Z,13.68
2022-08-21T05:05:25.011Z,13.77
2022-08-21T05:07:54.197Z,13.86
2022-08-21T05:10:21.455Z,14.00
2022-08-21T05:12:48.381Z,14.09
2022-08-21T05:15:15.727Z,14.23
2022-08-21T05:17:42.836Z,14.33
2022-08-21T05:20:11.238Z,14.43
2022-08-21T05:22:38.019Z,14.49
2022-08-21T05:25:10.138Z,14.71
2022-08-21T05:27:39.069Z,14.82
2022-08-21T05:30:10.142Z,14.92
2022-08-21T05:32:36.973Z,15.02
2022-08-21T05:35:08.860Z,15.17
2022-08-21T05:37:35.866Z,15.19
2022-08-21T05:40:04.830Z,15.30
2022-08-21T05:42:54.548Z,15.47
2022-08-21T05:45:41.748Z,15.50
2022-08-21T05:48:19.591Z,15.59
2022-08-21T05:50:48.327Z,15.65
2022-08-21T05:53:16.451Z,15.68
2022-08-21T05:55:46.100Z,15.67
2022-08-21T05:58:16.101Z,15.81
2022-08-21T06:00:43.478Z,15.95
2022-08-21T06:03:18.879Z,15.99
2022-08-21T06:05:46.557Z,16.19
2022-08-21T06:08:15.515Z,16.33
2022-08-21T06:10:42.190Z,16.45
2022-08-21T06:13:10.050Z,16.56
2022-08-21T06:15:37.025Z,16.64
2022-08-21T06:18:03.827Z,16.76
2022-08-21T06:20:30.604Z,16.82
2022-08-21T06:22:57.428Z,16.88
2022-08-21T06:25:25.537Z,17.65
2022-08-21T06:27:52.976Z,19.39
2022-08-21T06:30:19.892Z,20.35
2022-08-21T06:32:46.614Z,21.12
2022-08-21T06:35:13.370Z,21.66
2022-08-21T06:37:40.091Z,22.82
2022-08-21T06:40:12.402Z,23.58
2022-08-21T06:42:41.367Z,23.09
2022-08-21T06:45:10.114Z,24.54
2022-08-21T06:47:36.923Z,23.74
2022-08-21T06:50:04.741Z,23.07
2022-08-21T06:52:31.522Z,23.88
2022-08-21T06:54:58.172Z,24.22
2022-08-21T06:57:26.589Z,24.47
2022-08-21T06:59:53.298Z,24.32
2022-08-21T07:02:19.991Z,23.01
2022-08-21T07:04:46.622Z,22.33
2022-08-21T07:07:13.340Z,21.73
2022-08-21T07:09:40.562Z,21.68
2022-08-21T07:12:07.701Z,21.16
2022-08-21T07:14:34.408Z,20.82
2022-08-21T07:17:01.765Z,20.69
2022-08-21T07:19:29.240Z,20.51
2022-08-21T07:22:01.132Z,20.68
2022-08-21T07:24:27.934Z,20.39
2022-08-21T07:26:54.818Z,20.36
2022-08-21T07:29:21.563Z,20.78
2022-08-21T07:31:48.407Z,20.68
2022-08-21T07:34:15.342Z,20.72
2022-08-21T07:36:42.164Z,20.51
2022-08-21T07:39:09.116Z,20.57
2022-08-21T07:41:36.383Z,20.76
2022-08-21T07:44:04.094Z,20.93
2022-08-21T07:46:33.530Z,21.06
2022-08-21T07:49:00.351Z,20.89
2022-08-21T07:51:29.264Z,21.28
2022-08-21T07:53:58.608Z,21.51
2022-08-21T07:56:25.769Z,21.78
2022-08-21T07:58:52.750Z,21.71
2022-08-21T08:01:20.434Z,21.75
2022-08-21T08:03:47.619Z,21.57
2022-08-21T08:06:19.740Z,22.14
2022-08-21T08:08:47.094Z,21.62
2022-08-21T08:11:17.609Z,22.19
2022-08-21T08:13:48.482Z,22.00
2022-08-21T08:16:15.739Z,22.25
2022-08-21T08:18:43.194Z,22.38
2022-08-21T08:21:11.359Z,22.49
2022-08-21T08:23:39.744Z,22.81
2022-08-21T08:26:06.936Z,22.28
2022-08-21T08:28:34.545Z,22.20
2022-08-21T08:31:02.153Z,22.52
2022-08-21T08:33:28.929Z,22.82
2022-08-21T08:35:55.739Z,22.78
2022-08-21T08:38:24.991Z,22.93
2022-08-21T08:40:52.591Z,22.65
2022-08-21T08:43:19.899Z,22.53
2022-08-21T08:45:51.367Z,22.71
2022-08-21T08:48:53.363Z,22.48
2022-08-21T08:51:27.141Z,22.54
2022-08-21T08:54:00.057Z,22.65
2022-08-21T08:56:35.408Z,22.50
2022-08-21T08:59:16.004Z,22.73
2022-08-21T09:01:44.050Z,22.60
2022-08-21T09:04:13.366Z,22.84
2022-08-21T09:06:50.201Z,22.58
2022-08-21T09:09:27.892Z,22.64
2022-08-21T09:12:05.082Z,22.85
2022-08-21T09:14:59.133Z,22.73
2022-08-21T09:17:44.520Z,23.28
2022-08-21T09:20:35.837Z,23.05
2022-08-21T09:23:11.748Z,23.04
2022-08-21T09:26:12.977Z,23.22
2022-08-21T09:28:42.034Z,23.03
2022-08-21T09:31:17.775Z,22.99
2022-08-21T09:33:44.667Z,23.11
2022-08-21T09:36:11.567Z,23.76
2022-08-21T09:38:39.119Z,23.64
2022-08-21T09:41:09.798Z,24.09
2022-08-21T09:43:37.895Z,24.19
2022-08-21T09:46:11.689Z,23.99
2022-08-21T09:48:48.199Z,24.05
2022-08-21T09:51:45.800Z,24.13
2022-08-21T09:54:18.880Z,24.53
2022-08-21T09:57:15.751Z,24.75
2022-08-21T09:59:43.755Z,24.46
2022-08-21T10:02:29.238Z,24.40
2022-08-21T10:05:10.197Z,24.35
2022-08-21T10:07:38.892Z,24.46
2022-08-21T10:10:10.752Z,24.39
2022-08-21T10:12:50.802Z,24.03
2022-08-21T10:15:40.741Z,24.59
2022-08-21T10:18:28.970Z,23.98
2022-08-21T10:21:37.772Z,24.03
2022-08-21T10:24:52.415Z,23.55
2022-08-21T10:27:36.153Z,23.57
2022-08-21T10:30:20.109Z,23.79
2022-08-21T10:33:05.458Z,23.79
2022-08-21T10:35:37.422Z,24.11
2022-08-21T10:38:50.823Z,24.34
2022-08-21T10:41:44.167Z,24.47
2022-08-21T10:44:59.178Z,24.36
2022-08-21T10:47:39.163Z,24.74
2022-08-21T10:50:21.525Z,24.77
2022-08-21T10:53:04.161Z,24.76
2022-08-21T10:55:46.137Z,24.60
2022-08-21T10:58:18.943Z,24.86
2022-08-21T11:00:51.696Z,25.13
2022-08-21T11:03:26.937Z,25.31
2022-08-21T11:05:56.473Z,25.27
2022-08-21T11:08:27.037Z,25.80
2022-08-21T11:11:05.173Z,25.45
2022-08-21T11:13:44.275Z,25.80
2022-08-21T11:16:38.665Z,25.51
2022-08-21T11:19:28.927Z,25.22
2022-08-21T11:22:09.760Z,24.94
2022-08-21T11:24:47.734Z,25.57
2022-08-21T11:27:38.032Z,25.81
2022-08-21T11:30:06.314Z,25.82
2022-08-21T11:33:07.190Z,26.38
2022-08-21T11:35:41.671Z,26.10
2022-08-21T11:38:28.902Z,26.19
2022-08-21T11:41:22.673Z,26.42
2022-08-21T11:44:19.488Z,26.30
2022-08-21T11:47:21.596Z,25.97
2022-08-21T11:50:11.032Z,25.85
2022-08-21T11:53:09.655Z,26.20
2022-08-21T11:55:42.811Z,26.05
2022-08-21T11:58:18.984Z,26.17
2022-08-21T12:00:57.456Z,25.65
2022-08-21T12:03:59.170Z,26.02
2022-08-21T12:06:31.015Z,26.02
2022-08-21T12:09:00.696Z,25.94
2022-08-21T12:11:29.771Z,26.23
2022-08-21T12:14:12.232Z,25.99
2022-08-21T12:16:48.431Z,26.05
2022-08-21T12:19:30.254Z,26.20
2022-08-21T12:22:06.542Z,26.26
2022-08-21T12:24:38.487Z,26.17
2022-08-21T12:27:28.223Z,26.05
2022-08-21T12:30:03.184Z,26.26
2022-08-21T12:32:43.760Z,26.48
2022-08-21T12:35:25.412Z,26.47
2022-08-21T12:38:08.260Z,26.47
2022-08-21T12:40:51.337Z,26.56
2022-08-21T12:43:25.727Z,25.71
2022-08-21T12:45:53.370Z,25.42
2022-08-21T12:48:59.363Z,25.92
2022-08-21T12:51:39.266Z,26.33
2022-08-21T12:54:06.003Z,26.61
2022-08-21T12:56:34.913Z,26.83
2022-08-21T12:59:08.899Z,26.41
2022-08-21T13:01:56.019Z,26.73
2022-08-21T13:04:37.022Z,27.26
2022-08-21T13:07:08.969Z,27.09
2022-08-21T13:09:36.037Z,27.03
2022-08-21T13:12:02.900Z,26.30
2022-08-21T13:14:45.262Z,25.58
2022-08-21T13:17:23.468Z,25.54
2022-08-21T13:20:03.290Z,25.29
2022-08-21T13:22:34.535Z,25.25
2022-08-21T13:25:06.694Z,25.14
2022-08-21T13:27:35.093Z,24.80
2022-08-21T13:30:06.115Z,24.48
2022-08-21T13:32:38.743Z,24.35
2022-08-21T13:35:39.983Z,24.15
2022-08-21T13:38:09.101Z,24.01
2022-08-21T13:40:57.899Z,24.24
2022-08-21T13:43:29.665Z,24.29
2022-08-21T13:45:57.800Z,24.00
2022-08-21T13:48:28.967Z,24.20
2022-08-21T13:50:56.129Z,24.71
2022-08-21T13:53:30.652Z,24.96
2022-08-21T13:56:00.776Z,24.86
2022-08-21T13:58:34.482Z,24.68
2022-08-21T14:01:04.650Z,25.05
2022-08-21T14:03:42.869Z,25.15
2022-08-21T14:06:17.379Z,25.23
2022-08-21T14:08:51.640Z,25.44
2022-08-21T14:11:19.168Z,25.39
2022-08-21T14:14:09.401Z,25.52
2022-08-21T14:16:54.040Z,24.83
2022-08-21T14:19:24.755Z,24.76
2022-08-21T14:21:51.902Z,24.99
2022-08-21T14:24:24.775Z,24.60
2022-08-21T14:26:55.081Z,24.26
2022-08-21T14:29:28.561Z,24.06
2022-08-21T14:32:24.529Z,23.99
2022-08-21T14:34:52.559Z,24.03
2022-08-21T14:37:21.202Z,23.82
2022-08-21T14:39:47.966Z,23.98
2022-08-21T14:42:14.639Z,24.04
2022-08-21T14:44:42.007Z,24.28
2022-08-21T14:47:10.187Z,24.49
2022-08-21T14:49:36.919Z,24.79
2022-08-21T14:52:04.113Z,25.08
2022-08-21T14:54:32.681Z,25.38
2022-08-21T14:57:03.158Z,25.19
2022-08-21T14:59:33.718Z,25.07
2022-08-21T15:02:00.590Z,24.85
2022-08-21T15:04:27.309Z,24.94
2022-08-21T15:06:53.938Z,24.92
2022-08-21T15:09:20.768Z,24.91
2022-08-21T15:11:47.630Z,24.25
2022-08-21T15:14:27.385Z,24.32
2022-08-21T15:16:54.232Z,24.11
2022-08-21T15:19:20.992Z,24.19
2022-08-21T15:21:48.116Z,23.97
2022-08-21T15:24:14.839Z,23.88
2022-08-21T15:26:41.648Z,23.82
2022-08-21T15:29:09.310Z,23.91
2022-08-21T15:31:37.541Z,24.36
2022-08-21T15:34:04.268Z,24.20
2022-08-21T15:36:30.958Z,24.49
2022-08-21T15:38:57.595Z,24.72
2022-08-21T15:41:24.296Z,24.77
2022-08-21T15:43:53.374Z,24.47
2022-08-21T15:46:21.709Z,24.58
2022-08-21T15:48:48.984Z,24.64
2022-08-21T15:51:17.648Z,24.97
2022-08-21T15:53:45.123Z,24.45
2022-08-21T15:56:35.557Z,24.35
2022-08-21T15:59:06.711Z,24.23
2022-08-21T16:01:44.367Z,24.01
2022-08-21T16:04:17.125Z,24.15
2022-08-21T16:06:54.307Z,24.24
2022-08-21T16:09:23.071Z,24.18
2022-08-21T16:11:50.707Z,24.40
2022-08-21T16:14:18.113Z,24.38
2022-08-21T16:16:46.513Z,23.89
2022-08-21T16:19:14.680Z,23.53
2022-08-21T16:21:41.429Z,23.57
2022-08-21T16:24:09.833Z,23.56
2022-08-21T16:26:36.838Z,23.60
2022-08-21T16:29:05.348Z,23.60
2022-08-21T16:31:32.921Z,23.52
2022-08-21T16:34:00.456Z,23.46
2022-08-21T16:36:27.691Z,23.38
2022-08-21T16:38:55.631Z,23.36
2022-08-21T16:41:24.039Z,23.34
2022-08-21T16:43:51.973Z,23.24
2022-08-21T16:46:20.715Z,23.11
2022-08-21T16:48:48.129Z,23.02
2022-08-21T16:51:15.963Z,22.75
2022-08-21T16:53:43.757Z,22.69
2022-08-21T16:58:59.923Z,22.42
2022-08-21T17:01:31.653Z,22.37
2022-08-21T17:03:59.382Z,22.31
2022-08-21T17:06:28.944Z,22.22
2022-08-21T17:08:57.254Z,22.24
2022-08-21T17:11:38.056Z,22.11
2022-08-21T17:14:20.900Z,22.11
2022-08-21T17:16:55.208Z,22.06
2022-08-21T17:19:22.520Z,22.07
2022-08-21T17:21:49.303Z,22.06
2022-08-21T17:24:16.326Z,21.96
2022-08-21T17:26:44.575Z,21.92
2022-08-21T17:29:14.470Z,21.88
2022-08-21T17:31:42.561Z,21.79
2022-08-21T17:34:11.485Z,21.79
2022-08-21T17:36:38.492Z,21.68
2022-08-21T17:39:05.821Z,21.61
2022-08-21T17:41:33.448Z,21.57
2022-08-21T17:44:07.083Z,21.47
2022-08-21T17:46:43.185Z,21.44
2022-08-21T17:49:15.064Z,21.41
2022-08-21T17:51:43.520Z,21.36
2022-08-21T17:54:10.482Z,21.32
2022-08-21T17:56:39.590Z,21.27
2022-08-21T17:59:07.017Z,21.23
2022-08-21T18:01:43.268Z,21.17
2022-08-21T18:04:11.389Z,21.16
2022-08-21T18:06:41.651Z,21.07
2022-08-21T18:09:12.991Z,21.04
2022-08-21T18:11:44.141Z,21.08
2022-08-21T18:14:11.615Z,21.07
2022-08-21T18:16:38.626Z,21.09
2022-08-21T18:19:11.817Z,21.09
2022-08-21T18:21:38.666Z,21.02
2022-08-21T18:24:05.644Z,21.00
2022-08-21T18:26:36.582Z,21.00
2022-08-21T18:29:07.336Z,20.98
2022-08-21T18:31:36.937Z,20.95
2022-08-21T18:34:26.409Z,20.92
2022-08-21T18:36:53.827Z,20.88
2022-08-21T18:39:37.748Z,20.90
2022-08-21T18:42:09.410Z,20.83
2022-08-21T18:44:36.327Z,20.81
2022-08-21T18:47:11.366Z,20.74
2022-08-21T18:49:39.225Z,20.73
2022-08-21T18:52:08.176Z,20.65
2022-08-21T18:54:37.329Z,20.50
2022-08-21T18:57:09.159Z,20.42
2022-08-21T18:59:36.611Z,20.34
2022-08-21T19:02:07.959Z,20.28
2022-08-21T19:04:44.334Z,20.18
2022-08-21T19:07:14.047Z,20.07
2022-08-21T19:09:42.156Z,20.03
2022-08-21T19:12:18.263Z,19.90
2022-08-21T19:14:45.145Z,19.90
2022-08-21T19:17:13.329Z,19.82
2022-08-21T19:19:40.218Z,19.78
2022-08-21T19:24:54.573Z,19.67
2022-08-21T19:27:21.342Z,19.55
2022-08-21T19:29:50.754Z,19.46
2022-08-21T19:32:20.097Z,19.46
2022-08-21T19:34:49.850Z,19.40
2022-08-21T19:37:19.660Z,19.38
2022-08-21T19:39:48.699Z,19.33
2022-08-21T19:42:36.230Z,19.32
2022-08-21T19:45:26.747Z,19.28
2022-08-21T19:47:56.074Z,19.27
2022-08-21T19:50:25.853Z,19.25
2022-08-21T19:52:52.533Z,19.15
2022-08-21T19:55:20.268Z,19.07
2022-08-21T19:57:50.278Z,19.02
2022-08-21T20:00:18.167Z,19.01
2022-08-21T20:02:48.140Z,18.97
2022-08-21T20:05:15.988Z,18.83
2022-08-21T20:07:45.432Z,18.64
2022-08-21T20:10:13.004Z,18.68
2022-08-21T20:12:41.755Z,18.47
2022-08-21T20:15:09.215Z,18.32
2022-08-21T20:17:36.284Z,18.23
2022-08-21T20:20:04.656Z,18.30
2022-08-21T20:22:31.376Z,18.27
2022-08-21T20:24:59.056Z,18.22
2022-08-21T20:27:27.278Z,18.20
2022-08-21T20:29:54.289Z,18.21
2022-08-21T20:32:22.449Z,18.24
2022-08-21T20:34:52.024Z,18.27
2022-08-21T20:37:35.752Z,18.20
2022-08-21T20:40:11.610Z,18.17
2022-08-21T20:42:47.251Z,18.16
2022-08-21T20:45:26.288Z,18.18
2022-08-21T20:48:04.082Z,17.95
2022-08-21T20:50:36.962Z,17.83
2022-08-21T20:53:12.049Z,17.85
2022-08-21T20:55:43.977Z,17.94
2022-08-21T20:58:30.967Z,17.93
2022-08-21T21:01:01.506Z,17.94
2022-08-21T21:04:01.836Z,17.93
2022-08-21T21:06:30.817Z,17.93
2022-08-21T21:09:03.841Z,17.90
2022-08-21T21:11:38.611Z,17.87
2022-08-21T21:14:11.436Z,17.87
2022-08-21T21:16:41.651Z,17.82
2022-08-21T21:19:28.901Z,17.72
2022-08-21T21:22:26.475Z,17.58
2022-08-21T21:25:03.036Z,17.52
2022-08-21T21:27:48.911Z,17.44
2022-08-21T21:30:37.720Z,17.28
2022-08-21T21:33:04.689Z,17.32
2022-08-21T21:35:44.792Z,17.17
2022-08-21T21:38:27.635Z,17.11
2022-08-21T21:40:57.409Z,17.05
2022-08-21T21:43:52.341Z,16.98
2022-08-21T21:46:48.409Z,16.94
2022-08-21T21:49:37.254Z,16.89
2022-08-21T21:52:25.953Z,16.90
2022-08-21T21:55:03.145Z,16.73
2022-08-21T21:58:03.573Z,16.66
2022-08-21T22:00:33.781Z,16.77
2022-08-21T22:03:07.879Z,16.82
2022-08-21T22:05:49.432Z,16.82
2022-08-21T22:08:21.682Z,16.80
2022-08-21T22:10:51.597Z,16.91
2022-08-21T22:13:33.520Z,16.92
2022-08-21T22:16:06.592Z,16.93
2022-08-21T22:21:36.502Z,16.97
2022-08-21T22:24:14.553Z,17.30
2022-08-21T22:26:50.743Z,17.25
2022-08-21T22:29:20.856Z,17.18
2022-08-21T22:32:10.533Z,17.12
2022-08-21T22:34:38.884Z,17.02
2022-08-21T22:37:11.361Z,16.97
2022-08-21T22:39:45.996Z,16.80
2022-08-21T22:42:24.960Z,16.70
2022-08-21T22:45:01.330Z,16.64
2022-08-21T22:47:43.105Z,16.61
2022-08-21T22:50:30.821Z,16.61
2022-08-21T22:53:05.501Z,16.62
2022-08-21T22:56:00.453Z,16.56
2022-08-21T22:58:57.242Z,16.60
2022-08-21T23:01:23.779Z,16.60
2022-08-21T23:06:52.638Z,16.43
2022-08-21T23:09:21.179Z,16.48
2022-08-21T23:11:50.989Z,16.33
2022-08-21T23:14:18.334Z,16.38
2022-08-21T23:16:50.823Z,16.32
2022-08-21T23:19:43.037Z,16.33
2022-08-21T23:22:28.975Z,16.28
2022-08-21T23:25:22.428Z,16.08
2022-08-21T23:28:19.962Z,16.05
2022-08-21T23:30:46.767Z,15.83
2022-08-21T23:33:36.488Z,15.76
2022-08-21T23:37:07.049Z,15.67
2022-08-21T23:39:55.796Z,15.65
2022-08-21T23:42:28.653Z,15.65
2022-08-21T23:45:14.100Z,15.52
2022-08-21T23:48:19.883Z,15.38
2022-08-21T23:51:25.885Z,15.40
2022-08-21T23:54:26.919Z,15.35
2022-08-21T23:57:31.721Z,15.34
